地図

経路データ

SID SEASON NUMBER BASIN SUBBASIN NAME ISO_TIME NATURE LAT LON WMO_WIND WMO_PRES WMO_AGENCY TRACK_TYPE DIST2LAND LANDFALL IFLAG USA_AGENCY USA_ATCF_ID USA_LAT USA_LON USA_RECORD USA_STATUS USA_WIND USA_PRES USA_SSHS USA_R34_NE USA_R34_SE USA_R34_SW USA_R34_NW USA_R50_NE USA_R50_SE USA_R50_SW USA_R50_NW USA_R64_NE USA_R64_SE USA_R64_SW USA_R64_NW USA_POCI USA_ROCI USA_RMW USA_EYE TOKYO_LAT TOKYO_LON TOKYO_GRADE TOKYO_WIND TOKYO_PRES TOKYO_R50_DIR TOKYO_R50_LONG TOKYO_R50_SHORT TOKYO_R30_DIR TOKYO_R30_LONG TOKYO_R30_SHORT TOKYO_LAND CMA_LAT CMA_LON CMA_CAT CMA_WIND CMA_PRES HKO_LAT HKO_LON HKO_CAT HKO_WIND HKO_PRES NEWDELHI_LAT NEWDELHI_LON NEWDELHI_GRADE NEWDELHI_WIND NEWDELHI_PRES NEWDELHI_CI NEWDELHI_DP NEWDELHI_POCI REUNION_LAT REUNION_LON REUNION_TYPE REUNION_WIND REUNION_PRES REUNION_TNUM REUNION_CI REUNION_RMW REUNION_R34_NE REUNION_R34_SE REUNION_R34_SW REUNION_R34_NW REUNION_R50_NE REUNION_R50_SE REUNION_R50_SW REUNION_R50_NW REUNION_R64_NE REUNION_R64_SE REUNION_R64_SW REUNION_R64_NW BOM_LAT BOM_LON BOM_TYPE BOM_WIND BOM_PRES BOM_TNUM BOM_CI BOM_RMW BOM_R34_NE BOM_R34_SE BOM_R34_SW BOM_R34_NW BOM_R50_NE BOM_R50_SE BOM_R50_SW BOM_R50_NW BOM_R64_NE BOM_R64_SE BOM_R64_SW BOM_R64_NW BOM_ROCI BOM_POCI BOM_EYE BOM_POS_METHOD BOM_PRES_METHOD NADI_LAT NADI_LON NADI_CAT NADI_WIND NADI_PRES WELLINGTON_LAT WELLINGTON_LON WELLINGTON_WIND WELLINGTON_PRES DS824_LAT DS824_LON DS824_STAGE DS824_WIND DS824_PRES TD9636_LAT TD9636_LON TD9636_STAGE TD9636_WIND TD9636_PRES TD9635_LAT TD9635_LON TD9635_WIND TD9635_PRES TD9635_ROCI NEUMANN_LAT NEUMANN_LON NEUMANN_CLASS NEUMANN_WIND NEUMANN_PRES MLC_LAT MLC_LON MLC_CLASS MLC_WIND MLC_PRES USA_GUST BOM_GUST BOM_GUST_PER REUNION_GUST REUNION_GUST_PER USA_SEAHGT USA_SEARAD_NE USA_SEARAD_SE USA_SEARAD_SW USA_SEARAD_NW STORM_SPEED STORM_DIR
1978230N09136 1978 69 WP MM ELAINE 1978-08-18 00:00:00 TS 9.00000 135.500 main 990 981 O________OO___ jtwc_wp WP141978 9.00000 135.500 15 -1 9.00000 135.500 TC 15 9.00000 135.500 1 15 6 328
1978230N09136 1978 69 WP MM ELAINE 1978-08-18 03:00:00 TS 9.24639 135.347 main 972 965 P________PP___ WP141978 9.25002 135.343 15 -1 9.25002 135.343 TC 15 9.23915 135.356 1 15 6 330
1978230N09136 1978 69 WP MM ELAINE 1978-08-18 06:00:00 TS 9.49420 135.207 main 967 959 O________OP___ jtwc_wp WP141978 9.50000 135.200 15 -1 9.50000 135.200 TC 15 9.48260 135.220 1 15 6 333
1978230N09136 1978 69 WP MM ELAINE 1978-08-18 09:00:00 TS 9.74492 135.090 main 961 956 P________PP___ WP141978 9.74999 135.085 15 -1 9.74999 135.085 TC 15 9.73476 135.099 1 15 5 338
1978230N09136 1978 69 WP MM ELAINE 1978-08-18 12:00:00 TS 10.0000 135.000 main 958 954 O________OO___ jtwc_wp WP141978 10.0000 135.000 15 -1 10.0000 135.000 TC 15 10.0000 135.000 1 15 5 345
1978230N09136 1978 69 WP MM ELAINE 1978-08-18 15:00:00 TS 10.2594 134.942 main 957 957 P________PP___ WP141978 10.2500 134.950 15 -1 10.2500 134.950 TC 15 10.2784 134.927 1 15 5 348
1978230N09136 1978 69 WP MM ELAINE 1978-08-18 18:00:00 TS 10.5175 134.888 main 962 956 O________OP___ jtwc_wp WP141978 10.5000 134.900 15 -1 10.5000 134.900 TC 15 10.5524 134.865 1 15 5 346
1978230N09136 1978 69 WP MM ELAINE 1978-08-18 21:00:00 TS 10.7817 134.809 main 958 950 P________PP___ WP141978 10.7725 134.815 15 -1 10.7725 134.815 TC 15 10.8002 134.796 1 15 5 339
1978230N09136 1978 69 WP MM ELAINE 1978-08-19 00:00:00 TS 11.0000 134.700 main 952 944 O________OO___ jtwc_wp WP141978 11.0000 134.700 15 -1 11.0000 134.700 TC 15 11.0000 134.700 1 15 4 325
1978230N09136 1978 69 WP MM ELAINE 1978-08-19 03:00:00 TS 11.1257 134.565 main 944 925 P________PP___ WP141978 11.1300 134.565 15 -1 11.1300 134.565 TC 15 11.1172 134.566 1 15 4 304
1978230N09136 1978 69 WP MM ELAINE 1978-08-19 06:00:00 TS 11.1958 134.401 main 925 904 O________OP___ jtwc_wp WP141978 11.2000 134.400 15 -1 11.2000 134.400 TC 15 11.1874 134.402 1 15 4 290
1978230N09136 1978 69 WP MM ELAINE 1978-08-19 09:00:00 TS 11.2513 134.214 main 907 885 P________PP___ WP141978 11.2575 134.215 15 -1 11.2575 134.215 TC 15 11.2390 134.213 1 15 4 285
1978230N09136 1978 69 WP MM ELAINE 1978-08-19 12:00:00 TS 11.3000 134.000 main 885 864 O________OO___ jtwc_wp WP141978 11.3000 134.000 15 -1 11.3000 134.000 TC 15 11.3000 134.000 1 15 5 281
1978230N09136 1978 69 WP MM ELAINE 1978-08-19 15:00:00 TS 11.3403 133.765 main 864 836 P________PP___ WP141978 11.3275 133.757 15 -1 11.3275 133.757 TC 15 11.3659 133.779 1 15 5 284
1978230N09136 1978 69 WP MM ELAINE 1978-08-19 18:00:00 TS 11.4175 133.512 main 836 818 O________OP___ jtwc_wp WP141978 11.4000 133.500 15 -1 11.4000 133.500 TC 15 11.4525 133.537 1 15 5 294
1978230N09136 1978 69 WP MM ELAINE 1978-08-19 21:00:00 TS 11.5609 133.264 main 821 790 P________PP___ WP141978 11.5475 133.257 15 -1 11.5475 133.257 TC 15 11.5878 133.276 1 15 6 307
1978230N09136 1978 69 WP MM ELAINE 1978-08-20 00:00:00 TS 11.8000 133.000 main 790 762 O________OO___ jtwc_wp WP141978 11.8000 133.000 15 -1 11.8000 133.000 TC 15 11.8000 133.000 1 15 8 318
1978230N09136 1978 69 WP MM ELAINE 1978-08-20 03:00:00 TS 12.1549 132.717 main 763 740 P________PP___ WP141978 12.1700 132.708 15 -1 12.1700 132.708 TC 15 12.1248 132.735 1 15 10 324
1978230N09136 1978 69 WP MM ELAINE 1978-08-20 06:00:00 TS 12.5749 132.417 main 740 721 O________OP___ jtwc_wp WP141978 12.6000 132.400 15 -1 12.6000 132.400 TC 15 12.5247 132.452 1 15 10 325
1978230N09136 1978 69 WP MM ELAINE 1978-08-20 09:00:00 TS 12.9874 132.124 main 721 696 P________PP___ WP141978 12.9999 132.115 15 -1 12.9999 132.115 TC 15 12.9623 132.144 1 15 10 324
1978230N09136 1978 69 WP MM ELAINE 1978-08-20 12:00:00 TS 13.4000 131.800 main 696 664 O________OO___ jtwc_wp WP141978 13.4000 131.800 15 -1 13.4000 131.800 TC 15 13.4000 131.800 1 15 11 320
1978230N09136 1978 69 WP MM ELAINE 1978-08-20 15:00:00 TS 13.8031 131.421 main 664 636 P________PP___ WP141978 13.8075 131.422 15 -1 13.8075 131.422 TC 15 13.7943 131.419 1 16 11 316
1978230N09136 1978 69 WP MM ELAINE 1978-08-20 18:00:00 TS 14.1933 131.001 main 636 609 O________OP___ jtwc_wp WP141978 14.2000 131.000 15 -1 14.2000 131.000 TC 15 14.1799 131.002 1 17 11 312
1978230N09136 1978 69 WP MM ELAINE 1978-08-20 21:00:00 TS 14.5551 130.563 main 613 567 P________PP___ WP141978 14.5574 130.565 17 -1 14.5574 130.565 TC 17 14.5505 130.560 1 18 13 305
1978230N09136 1978 69 WP MM ELAINE 1978-08-21 00:00:00 TS 14.9077 129.938 1004 tokyo main 563 538 OO_______OO___ jtwc_wp WP141978 14.9000 130.100 20 -1 15.0000 128.000 2 1004 0 0 0 14.9000 130.100 TC 20 14.9000 130.100 1 20 14 301
1978230N09136 1978 69 WP MM ELAINE 1978-08-21 03:00:00 TS 15.2551 129.368 main 545 516 PP_______PP___ WP141978 15.2650 129.600 20 -1 15.2500 127.913 2 1004 0 0 15.2650 129.600 TC 20 15.2377 129.631 1 20 12 302
1978230N09136 1978 69 WP MM ELAINE 1978-08-21 06:00:00 TS 15.5673 128.853 1004 tokyo main 520 479 OO_______OP___ jtwc_wp WP141978 15.6000 129.100 20 -1 15.5000 127.800 2 1004 0 0 0 15.6000 129.100 TC 20 15.5524 129.150 1 20 11 302
1978230N09136 1978 69 WP MM ELAINE 1978-08-21 09:00:00 TS 15.8339 128.401 main 479 458 PP_______PP___ WP141978 15.8724 128.642 20 -1 15.7500 127.650 2 1004 0 0 15.8724 128.642 TC 20 15.8409 128.669 1 20 9 302
1978230N09136 1978 69 WP MM ELAINE 1978-08-21 12:00:00 TS 16.0750 128.025 1004 tokyo main 458 444 OO_______OO___ jtwc_wp WP141978 16.1000 128.200 20 -1 16.0000 127.500 2 1004 0 0 0 16.1000 128.200 TC 20 16.1000 128.200 1 20 9 303
1978230N09136 1978 69 WP MM ELAINE 1978-08-21 15:00:00 TS 16.2984 127.657 main 444 426 PP_______PP___ WP141978 16.3074 127.742 22 -1 16.2500 127.400 2 1004 0 0 16.3074 127.742 TC 22 16.3285 127.744 1 21 8 302
1978230N09136 1978 69 WP MM ELAINE 1978-08-21 18:00:00 TS 16.5074 127.301 1004 tokyo main 426 418 OO_______OP___ jtwc_wp WP141978 16.5000 127.300 25 -1 16.5000 127.300 2 1004 0 0 0 16.5000 127.300 TC 25 16.5298 127.304 1 22 8 301
1978230N09136 1978 69 WP MM ELAINE 1978-08-21 21:00:00 TS 16.7109 126.948 main 411 405 PP_______PP___ WP141978 16.6999 126.885 25 -1 16.7275 127.135 2 1002 0 0 16.6999 126.885 TC 25 16.7161 126.888 1 23 8 303
1978230N09136 1978 69 WP MM ELAINE 1978-08-22 00:00:00 TS 16.9250 126.625 1000 tokyo main 407 407 OO_______OO___ jtwc_wp WP141978 16.9000 126.500 25 -1 17.0000 127.000 2 1000 0 0 0 16.9000 126.500 TC 25 16.9000 126.500 1 25 7 311
1978230N09136 1978 69 WP MM ELAINE 1978-08-22 03:00:00 TS 17.1855 126.368 main 415 385 PP_______PP___ WP141978 17.0999 126.135 25 -1 17.4223 127.052 2 1000 0 0 17.0999 126.135 TC 25 17.1198 126.150 1 25 7 316
1978230N09136 1978 69 WP MM ELAINE 1978-08-22 06:00:00 TS 17.4342 126.107 1000 tokyo main 385 346 OO_______OP___ jtwc_wp WP141978 17.3000 125.800 25 -1 17.8000 127.000 2 1000 0 0 0 17.3000 125.800 TC 25 17.3369 125.827 1 25 8 306
1978230N09136 1978 69 WP MM ELAINE 1978-08-22 09:00:00 TS 17.6400 125.719 main 346 310 PP_______PP___ WP141978 17.5149 125.500 25 -1 17.9602 126.575 2 1000 0 0 17.5149 125.500 TC 25 17.5355 125.516 1 25 8 295
1978230N09136 1978 69 WP MM ELAINE 1978-08-22 12:00:00 TS 17.7889 125.322 1000 tokyo main 310 273 OOO______OO___ jtwc_wp WP141978 17.7000 125.200 25 -1 18.0000 126.000 2 1000 0 0 0 17.9000 124.700 1 29 1000 17.7000 125.200 TC 25 17.7000 125.200 1 25 8 289
1978230N09136 1978 69 WP MM ELAINE 1978-08-22 15:00:00 TS 17.9026 124.921 main 273 234 PPP______PP___ WP141978 17.8225 124.857 25 -1 18.0000 125.485 2 998 0 0 18.0926 124.403 1 33 999 17.8225 124.857 TC 25 17.8230 124.857 1 25 8 286
1978230N09136 1978 69 WP MM ELAINE 1978-08-22 18:00:00 TS 18.0020 124.521 996 tokyo main 234 201 OOO______OP___ jtwc_wp WP141978 17.9000 124.500 25 -1 18.0000 125.000 2 996 0 0 0 18.3000 124.100 2 38 998 17.9000 124.500 TC 25 17.9098 124.507 1 25 7 286
1978230N09136 1978 69 WP MM ELAINE 1978-08-22 21:00:00 TS 18.1012 124.172 main 201 158 PPP______PP___ WP141978 17.9574 124.150 25 -1 18.1146 124.615 2 994 0 0 18.5100 123.793 2 38 998 17.9574 124.150 TC 25 17.9667 124.154 1 25 7 284
1978230N09136 1978 69 WP MM ELAINE 1978-08-23 00:00:00 TS 18.1619 123.829 40 992 tokyo main 158 127 OOOO_____OO___ jtwc_wp WP141978 18.0000 123.800 25 -1 18.2000 124.200 3 40 992 0 9 150 150 0 18.6000 123.500 2 38 998 18.2000 124.000 TD 30 1000 18.0000 123.800 TC 25 18.0000 123.800 1 25 7 274
1978230N09136 1978 69 WP MM ELAINE 1978-08-23 03:00:00 TS 18.1508 123.456 main 127 87 PPPP_____PP___ WP141978 18.0649 123.450 25 -1 18.1153 123.607 3 40 992 0 9 150 150 18.4373 123.265 2 38 996 18.2027 123.550 TD 30 997 18.0649 123.450 TC 25 18.0456 123.462 1 25 7 266
1978230N09136 1978 69 WP MM ELAINE 1978-08-23 06:00:00 TS 18.1073 123.069 40 992 tokyo main 87 47 OOOO_____OP___ jtwc_wp WP141978 18.1000 123.100 25 -1 18.0000 123.000 3 40 992 0 9 150 150 0 18.2000 123.000 2 38 995 18.2000 123.100 TD 30 995 18.1000 123.100 TC 25 18.0670 123.123 1 25 7 264
1978230N09136 1978 69 WP MM ELAINE 1978-08-23 09:00:00 TS 18.0799 122.682 main 47 15 PPPP_____PP___ WP141978 18.0799 122.758 25 -1 17.9997 122.535 3 40 992 0 9 150 150 18.0850 122.623 2 38 994 18.1799 122.650 TD 30 995 18.0799 122.758 TC 25 18.0549 122.772 1 25 8 263
1978230N09136 1978 69 WP MM ELAINE 1978-08-23 12:00:00 TS 18.0167 122.283 40 992 tokyo main 15 0 OOOO_____OO___ jtwc_wp WP141978 18.0000 122.400 25 -1 18.0000 122.100 3 40 992 0 9 150 150 0 18.0000 122.200 2 38 993 18.1000 122.200 TD 30 995 18.0000 122.400 TC 25 18.0000 122.400 1 25 8 257
1978230N09136 1978 69 WP MM ELAINE 1978-08-23 15:00:00 TS 17.9008 121.856 main 0 0 PPPP_____PP___ WP141978 17.8649 122.015 27 -1 17.9451 121.578 3 40 992 0 9 150 150 17.9149 121.800 2 38 993 17.9299 121.742 TD 30 992 17.8649 122.015 TC 27 17.8851 121.984 1 27 9 251
1978230N09136 1978 69 WP MM ELAINE 1978-08-23 18:00:00 TS 17.7384 121.425 40 992 tokyo main 0 0 OOOO_____OP___ jtwc_wp WP141978 17.7000 121.600 30 -1 17.8000 121.100 3 40 992 0 9 150 150 0 17.8000 121.400 2 38 993 17.7000 121.300 TD 30 990 17.7000 121.600 TC 30 17.7302 121.549 1 30 9 246
1978230N09136 1978 69 WP MM ELAINE 1978-08-23 21:00:00 TS 17.5375 121.010 main 0 0 PPPP_____PP___ WP141978 17.5425 121.150 32 -1 17.5148 120.770 3 40 992 0 9 150 150 17.6149 121.008 2 38 991 17.4500 120.870 TD 30 990 17.5425 121.150 TC 32 17.5601 121.115 1 32 9 242
1978230N09136 1978 69 WP MM ELAINE 1978-08-24 00:00:00 TS 17.3333 120.617 40 992 tokyo main 0 0 OOOO_____OO___ jtwc_wp WP141978 17.4000 120.700 35 0 17.2000 120.500 3 40 992 0 9 150 150 0 17.4000 120.600 2 38 990 17.2000 120.500 TD 30 990 17.4000 120.700 TC 35 17.4000 120.700 2 35 8 243
1978230N09136 1978 69 WP MM ELAINE 1978-08-24 03:00:00 TS 17.1561 120.233 main 21 21 PPPP_____PP___ WP141978 17.2925 120.278 37 0 16.9700 120.185 3 40 992 0 9 150 150 17.1627 120.120 2 38 987 16.9698 120.235 TD 32 990 17.2925 120.278 TC 37 17.2489 120.304 2 36 8 246
1978230N09136 1978 69 WP MM ELAINE 1978-08-24 06:00:00 TS 17.0196 119.889 40 992 tokyo main 57 57 OOOO_____OP___ jtwc_wp WP141978 17.2000 119.900 40 0 16.8000 119.900 3 40 992 0 9 150 150 0 17.0000 119.700 2 38 985 16.8000 120.000 TS 35 990 17.2000 119.900 TC 40 17.1174 119.932 2 37 6 249
1978230N09136 1978 69 WP MM ELAINE 1978-08-24 09:00:00 TS 16.9282 119.603 main 70 70 PPPP_____PP___ WP141978 17.0699 119.577 40 0 16.6774 119.700 3 40 991 0 9 150 150 17.0048 119.470 2 43 985 16.7200 119.700 TS 37 990 17.0699 119.577 TC 40 17.0272 119.595 2 38 5 257
1978230N09136 1978 69 WP MM ELAINE 1978-08-24 12:00:00 TS 16.9000 119.350 40 990 tokyo main 79 79 OOOO_____OO___ jtwc_wp WP141978 17.0000 119.300 40 0 16.6000 119.500 3 40 990 0 9 150 150 0 17.1000 119.300 3 48 985 16.7000 119.400 TS 40 990 17.0000 119.300 TC 40 17.0000 119.300 2 40 5 271
1978230N09136 1978 69 WP MM ELAINE 1978-08-24 15:00:00 TS 16.9390 119.083 main 100 100 PPPP_____PP___ WP141978 17.0625 119.028 40 0 16.5350 119.207 3 40 990 0 9 150 150 17.2000 119.058 3 48 985 16.6775 119.135 TS 40 987 17.0625 119.028 TC 40 17.0966 119.041 2 40 5 284
1978230N09136 1978 69 WP MM ELAINE 1978-08-24 18:00:00 TS 17.0250 118.838 40 990 tokyo main 132 132 OOOO_____OP___ jtwc_wp WP141978 17.2000 118.800 40 0 16.5000 118.900 3 40 990 0 9 150 150 0 17.3000 118.800 3 48 985 16.7000 118.900 TS 40 985 17.2000 118.800 TC 40 17.2497 118.826 2 40 5 293
1978230N09136 1978 69 WP MM ELAINE 1978-08-24 21:00:00 TS 17.1267 118.630 main 156 156 PPPP_____PP___ WP141978 17.3875 118.628 40 0 16.4249 118.642 3 40 987 0 9 150 150 17.3725 118.543 3 48 982 16.7850 118.693 TS 42 985 17.3875 118.628 TC 40 17.4030 118.647 2 40 4 297
1978230N09136 1978 69 WP MM ELAINE 1978-08-25 00:00:00 TS 17.2167 118.450 40 985 tokyo main 171 171 OOOO_____OO___ jtwc_wp WP141978 17.5000 118.500 40 0 16.5000 118.400 3 40 985 0 9 150 150 0 17.4000 118.300 3 48 980 16.9000 118.500 TS 45 985 17.5000 118.500 TC 40 17.5000 118.500 2 40 4 290
1978230N09136 1978 69 WP MM ELAINE 1978-08-25 03:00:00 TS 17.2521 118.272 main 195 195 PPPP_____PP___ WP141978 17.3800 118.392 40 0 16.9726 118.113 3 42 982 0 9 150 150 17.3800 118.047 3 48 980 16.9925 118.292 TS 47 982 17.3800 118.392 TC 40 17.4076 118.395 2 41 3 275
1978230N09136 1978 69 WP MM ELAINE 1978-08-25 06:00:00 TS 17.2437 118.136 45 980 tokyo main 207 207 OOOO_____OP___ jtwc_wp WP141978 17.2000 118.300 40 0 17.4000 117.900 3 45 980 0 9 150 150 0 17.3000 117.900 3 48 980 17.1000 118.100 STS 50 980 17.2000 118.300 TC 40 17.2622 118.314 2 42 2 245
1978230N09136 1978 69 WP MM ELAINE 1978-08-25 09:00:00 TS 17.1634 118.074 main 207 202 PPPP_____PP___ WP141978 17.0975 118.215 42 0 17.3024 117.855 3 47 980 0 9 175 175 17.1200 117.985 3 53 977 17.2275 117.950 STS 50 980 17.0975 118.215 TC 42 17.1357 118.226 2 43 2 226
1978230N09136 1978 69 WP MM ELAINE 1978-08-25 12:00:00 TS 17.1333 118.017 50 980 tokyo main 211 211 OOOO_____OO___ jtwc_wp WP141978 17.1000 118.100 45 0 17.1000 117.900 4 50 980 9 50 50 9 200 200 0 17.0000 118.100 3 58 975 17.4000 117.800 STS 50 980 17.1000 118.100 TC 45 17.1000 118.100 2 45 2 302
1978230N09136 1978 69 WP MM ELAINE 1978-08-25 15:00:00 TS 17.2530 117.923 main 231 231 PPPP_____PP___ WP141978 17.2475 117.930 47 0 17.0947 118.039 4 52 977 9 50 50 9 200 200 17.0523 118.090 3 58 975 17.6349 117.622 STS 52 977 17.2475 117.930 TC 47 17.2410 117.926 2 47 5 323
1978230N09136 1978 69 WP MM ELAINE 1978-08-25 18:00:00 TS 17.4966 117.734 55 975 tokyo main 260 260 OOOO_____OP___ jtwc_wp WP141978 17.5000 117.700 50 0 17.3000 118.000 4 55 975 9 50 50 9 200 200 0 17.3000 117.900 3 58 975 17.9000 117.400 STS 55 975 17.5000 117.700 TC 50 17.4796 117.705 2 50 8 319
1978230N09136 1978 69 WP MM ELAINE 1978-08-25 21:00:00 TS 17.8495 117.386 main 305 305 PPPP_____PP___ WP141978 17.7849 117.430 52 0 17.8358 117.447 4 55 975 9 50 50 9 225 225 17.7628 117.453 3 58 975 18.1500 117.122 STS 57 975 17.7849 117.430 TC 52 17.7784 117.432 2 52 10 315
1978230N09136 1978 69 WP MM ELAINE 1978-08-26 00:00:00 TS 18.2333 116.967 55 975 tokyo main 355 355 OOOO_____OO___ jtwc_wp WP141978 18.1000 117.100 55 0 18.4000 116.800 4 55 975 9 50 50 9 250 250 0 18.3000 116.900 3 58 975 18.4000 116.800 STS 60 975 18.1000 117.100 TC 55 18.1000 117.100 2 55 10 313
1978230N09136 1978 69 WP MM ELAINE 1978-08-26 03:00:00 TS 18.5388 116.607 main 403 403 PPPP_____PP___ WP141978 18.3999 116.730 57 0 18.6369 116.534 4 55 972 9 50 50 9 250 250 18.7374 116.435 3 58 975 18.6573 116.480 STS 60 975 18.3999 116.730 TC 57 18.4016 116.736 2 56 9 310
1978230N09136 1978 69 WP MM ELAINE 1978-08-26 06:00:00 TS 18.8191 116.219 55 970 tokyo main 435 390 OOOO_____OP___ jtwc_wp WP141978 18.7000 116.300 60 0 18.8000 116.300 4 55 970 9 50 50 9 250 250 0 19.1000 116.000 3 58 975 18.9000 116.100 STS 60 975 18.7000 116.300 TC 60 18.7144 116.313 2 57 10 306
1978230N09136 1978 69 WP MM ELAINE 1978-08-26 09:00:00 TS 19.1111 115.770 main 390 340 PPPP_____PP___ WP141978 19.0148 115.830 60 0 19.1149 115.860 4 57 970 9 50 50 9 250 250 19.3795 115.637 3 63 972 19.1225 115.630 STS 60 972 19.0148 115.830 TC 60 19.0201 115.833 2 58 11 301
1978230N09136 1978 69 WP MM ELAINE 1978-08-26 12:00:00 TS 19.3667 115.250 60 970 tokyo main 340 315 OOOO_____OO___ jtwc_wp WP141978 19.3000 115.300 60 0 19.4000 115.300 4 60 970 9 50 50 9 250 250 0 19.6000 115.200 4 68 970 19.3000 115.100 STS 60 970 19.3000 115.300 TC 60 19.3000 115.300 2 60 11 292
1978230N09136 1978 69 WP MM ELAINE 1978-08-26 15:00:00 TS 19.5442 114.648 main 314 267 PPPP_____PP___ WP141978 19.5149 114.722 60 0 19.5151 114.665 4 60 967 9 50 50 9 250 250 19.8231 114.500 4 68 967 19.3924 114.557 STS 60 970 19.5149 114.722 TC 60 19.5046 114.720 2 60 12 286
1978230N09136 1978 69 WP MM ELAINE 1978-08-26 18:00:00 TS 19.6975 114.016 60 965 tokyo main 267 240 OOOO_____OP___ jtwc_wp WP141978 19.7000 114.100 60 0 19.6000 114.000 4 60 965 9 50 50 9 250 250 0 20.0000 113.800 4 68 965 19.5000 114.000 STS 60 970 19.7000 114.100 TC 60 19.6853 114.093 2 60 12 285
1978230N09136 1978 69 WP MM ELAINE 1978-08-26 21:00:00 TS 19.8595 113.423 main 227 189 PPPP_____PP___ WP141978 19.8774 113.450 60 0 19.7548 113.385 4 60 965 9 50 50 9 225 225 20.0844 113.369 4 68 965 19.6899 113.442 STS 60 967 19.8774 113.450 TC 60 19.8732 113.445 2 60 12 289
1978230N09136 1978 69 WP MM ELAINE 1978-08-27 00:00:00 TS 20.0833 112.850 60 965 tokyo main 189 142 OOOO_____OO___ jtwc_wp WP141978 20.1000 112.800 60 0 20.0000 112.800 4 60 965 9 50 50 9 200 200 0 20.2000 113.000 4 68 965 20.0000 112.900 STS 60 965 20.1000 112.800 TC 60 20.1000 112.800 2 60 12 299
1978230N09136 1978 69 WP MM ELAINE 1978-08-27 03:00:00 TS 20.4412 112.317 main 142 80 PPPP_____PP___ WP141978 20.4272 112.192 60 0 20.3619 112.272 4 62 965 9 70 70 9 190 190 20.4768 112.575 4 68 965 20.4918 112.437 STS 60 967 20.4272 112.192 TC 60 20.4620 112.231 2 61 13 306
1978230N09136 1978 69 WP MM ELAINE 1978-08-27 06:00:00 TS 20.8429 111.744 65 965 tokyo main 78 24 OOOO_____OP___ jtwc_wp WP141978 20.8000 111.600 60 0 20.8000 111.700 5 65 965 9 90 90 9 180 180 0 20.8000 112.000 4 68 965 21.0000 111.900 STS 60 970 20.8000 111.600 TC 60 20.8574 111.662 2 62 14 304
1978230N09136 1978 69 WP MM ELAINE 1978-08-27 09:00:00 TS 21.2223 111.064 main 30 0 PPPP_____PP___ WP141978 21.1870 111.023 62 0 21.2873 110.996 5 62 967 9 75 75 9 165 165 21.0807 111.138 4 63 967 21.3677 111.145 STS 60 972 21.1870 111.023 TC 62 21.2242 111.062 2 63 15 297
1978230N09136 1978 69 WP MM ELAINE 1978-08-27 12:00:00 TS 21.5167 110.317 60 970 tokyo main 0 0 OOOO_____OO___ jtwc_wp WP141978 21.5000 110.400 65 1 21.7000 110.200 4 60 970 9 60 60 9 150 150 0 21.3000 110.200 3 58 970 21.6000 110.300 STS 60 975 21.5000 110.400 TC 65 21.5000 110.400 4 65 15 287
1978230N09136 1978 69 WP MM ELAINE 1978-08-27 15:00:00 TS 21.6628 109.552 main 0 0 PPPP_____PP___ WP141978 21.6671 109.695 60 0 21.9175 109.350 4 55 972 9 9 150 150 21.3993 109.427 3 53 975 21.6872 109.492 STS 52 977 21.6671 109.695 TC 60 21.6386 109.654 4 56 15 278
1978230N09136 1978 69 WP MM ELAINE 1978-08-27 18:00:00 TS 21.7140 108.741 50 975 tokyo main 0 0 OOOO_____OP___ jtwc_wp WP141978 21.7000 108.900 55 0 22.0000 108.500 4 50 975 0 9 150 150 0 21.5000 108.700 3 48 980 21.7000 108.700 TS 45 980 21.7000 108.900 TC 55 21.6600 108.839 4 47 15 275
1978230N09136 1978 69 WP MM ELAINE 1978-08-27 21:00:00 TS 21.8048 107.931 main 0 0 PPPP_____PP___ WP141978 21.6286 108.022 42 0 22.0969 107.736 4 983 0 9 21.8238 108.004 3 43 986 21.7381 107.940 TS 37 985 21.6286 108.022 TC 42 21.6013 107.980 4 38 15 275
1978230N09136 1978 69 WP MM ELAINE 1978-08-28 00:00:00 TS 21.8583 107.108 992 tokyo main 0 0 OOOO_____OO___ jtwc_wp WP141978 21.5000 107.100 30 -1 22.0000 107.000 2 992 0 0 0 22.0000 107.200 2 38 992 21.8000 107.200 TD 30 990 21.5000 107.100 TC 30 21.5000 107.100 2 30 16 262
1978230N09136 1978 69 WP MM ELAINE 1978-08-28 03:00:00 TS 21.5759 106.210 main 0 0 _PP___________ WP141978 -1 21.4997 106.248 2 994 0 0 21.6522 106.172 2 33 994 TD TC 2 19 245
1978230N09136 1978 69 WP MM ELAINE 1978-08-28 06:00:00 TS 21.0857 105.286 996 tokyo main 0 0 _OO___________ -1 21.0000 105.500 2 996 0 0 0 21.2000 105.000 1 29 996 2 18 250
1978230N09136 1978 69 WP MM ELAINE 1978-08-28 09:00:00 TS 20.9529 104.422 main 0 0 _PP___________ -1 20.9247 104.751 2 997 0 0 21.0092 103.765 1 26 996 2 15 267
1978230N09136 1978 69 WP MM ELAINE 1978-08-28 12:00:00 TS 21.0000 103.700 998 tokyo main 0 0 _OO___________ -1 21.0000 104.000 2 998 0 0 0 21.0000 102.500 1 23 996 11 274
1978230N09136 1978 69 WP MM ELAINE 1978-08-28 15:00:00 TS 21.0221 103.258 main 0 0 _P____________ -1 21.0221 103.258 2 999 0 0 1 11 270
1978230N09136 1978 69 WP MM ELAINE 1978-08-28 18:00:00 TS 21.0000 102.500 1000 tokyo main 0 0 _O____________ -1 21.0000 102.500 2 1000 0 0 0 15 264
1978230N09136 1978 69 WP MM ELAINE 1978-08-28 21:00:00 TS 20.8808 101.709 main 0 0 _P____________ -1 20.8808 101.709 2 1001 0 0 15 259
1978230N09136 1978 69 WP MM ELAINE 1978-08-29 00:00:00 TS 20.7000 100.900 1002 tokyo main 0 _O____________ -1 20.7000 100.900 2 1002 0 0 0 16 257

デジタル台風データ・検索

IBTrACS Databaseについて

本データベースは、米国NOAAが公開する1842年以降の世界の熱帯低気圧のベストトラックデータアーカイブInternational Best Track Archive for Climate Stewardship (IBTrACS)を、ウェブで閲覧しやすい形式に変換したものです。

最終更新日:2021-12-03